sensor_id;sensor_type;location;lat;lon;timestamp;temperature;humidity
45983;DHT22;31711;47.158;7.346;2023-04-24T00:00:29;8.70;99.90
45983;DHT22;31711;47.158;7.346;2023-04-24T00:02:55;8.70;99.90
45983;DHT22;31711;47.158;7.346;2023-04-24T00:05:22;8.70;99.90
45983;DHT22;31711;47.158;7.346;2023-04-24T00:07:48;8.80;99.90
45983;DHT22;31711;47.158;7.346;2023-04-24T00:10:14;8.70;99.90
45983;DHT22;31711;47.158;7.346;2023-04-24T00:12:40;8.80;99.90
45983;DHT22;31711;47.158;7.346;2023-04-24T00:15:07;8.70;99.90
45983;DHT22;31711;47.158;7.346;2023-04-24T00:17:33;8.70;99.90
45983;DHT22;31711;47.158;7.346;2023-04-24T00:19:59;8.80;99.90
45983;DHT22;31711;47.158;7.346;2023-04-24T00:22:26;8.80;99.90
45983;DHT22;31711;47.158;7.346;2023-04-24T00:24:52;8.70;99.90
45983;DHT22;31711;47.158;7.346;2023-04-24T00:27:19;8.90;99.90
45983;DHT22;31711;47.158;7.346;2023-04-24T00:29:44;8.80;99.90
45983;DHT22;31711;47.158;7.346;2023-04-24T00:32:11;8.80;99.90
45983;DHT22;31711;47.158;7.346;2023-04-24T00:34:37;8.70;99.90
45983;DHT22;31711;47.158;7.346;2023-04-24T00:37:02;8.70;99.90
45983;DHT22;31711;47.158;7.346;2023-04-24T00:39:28;8.70;99.90
45983;DHT22;31711;47.158;7.346;2023-04-24T00:41:54;8.80;99.90
45983;DHT22;31711;47.158;7.346;2023-04-24T00:44:22;8.70;99.90
45983;DHT22;31711;47.158;7.346;2023-04-24T00:46:49;8.70;99.90
45983;DHT22;31711;47.158;7.346;2023-04-24T00:49:21;8.70;99.90
45983;DHT22;31711;47.158;7.346;2023-04-24T00:51:47;8.70;99.90
45983;DHT22;31711;47.158;7.346;2023-04-24T00:54:15;8.70;99.90
45983;DHT22;31711;47.158;7.346;2023-04-24T00:56:42;8.60;99.90
45983;DHT22;31711;47.158;7.346;2023-04-24T00:59:10;8.70;99.90
45983;DHT22;31711;47.158;7.346;2023-04-24T01:01:36;8.60;99.90
45983;DHT22;31711;47.158;7.346;2023-04-24T01:04:02;8.60;99.90
45983;DHT22;31711;47.158;7.346;2023-04-24T01:06:29;8.60;99.90
45983;DHT22;31711;47.158;7.346;2023-04-24T01:08:58;8.50;99.90
45983;DHT22;31711;47.158;7.346;2023-04-24T01:11:25;8.50;99.90
45983;DHT22;31711;47.158;7.346;2023-04-24T01:13:51;8.60;99.90
45983;DHT22;31711;47.158;7.346;2023-04-24T01:16:18;8.60;99.90
45983;DHT22;31711;47.158;7.346;2023-04-24T01:18:47;8.60;99.90
45983;DHT22;31711;47.158;7.346;2023-04-24T01:21:14;8.60;99.90
45983;DHT22;31711;47.158;7.346;2023-04-24T01:23:44;8.60;99.90
45983;DHT22;31711;47.158;7.346;2023-04-24T01:26:10;8.70;99.90
45983;DHT22;31711;47.158;7.346;2023-04-24T01:28:36;8.70;99.90
45983;DHT22;31711;47.158;7.346;2023-04-24T01:31:02;8.70;99.90
45983;DHT22;31711;47.158;7.346;2023-04-24T01:33:28;8.70;99.90
45983;DHT22;31711;47.158;7.346;2023-04-24T01:35:55;8.70;99.90
45983;DHT22;31711;47.158;7.346;2023-04-24T01:38:21;8.60;99.90
45983;DHT22;31711;47.158;7.346;2023-04-24T01:40:47;8.70;99.90
45983;DHT22;31711;47.158;7.346;2023-04-24T01:43:13;8.70;99.90
45983;DHT22;31711;47.158;7.346;2023-04-24T01:45:39;8.70;99.90
45983;DHT22;31711;47.158;7.346;2023-04-24T01:48:05;8.70;99.90
45983;DHT22;31711;47.158;7.346;2023-04-24T01:50:32;8.70;99.90
45983;DHT22;31711;47.158;7.346;2023-04-24T01:52:58;8.60;99.90
45983;DHT22;31711;47.158;7.346;2023-04-24T01:55:24;8.60;99.90
45983;DHT22;31711;47.158;7.346;2023-04-24T01:57:50;8.70;99.90
45983;DHT22;31711;47.158;7.346;2023-04-24T02:00:17;8.60;99.90
45983;DHT22;31711;47.158;7.346;2023-04-24T02:02:44;8.70;99.90
45983;DHT22;31711;47.158;7.346;2023-04-24T02:05:10;8.70;99.90
45983;DHT22;31711;47.158;7.346;2023-04-24T02:07:36;8.70;99.90
45983;DHT22;31711;47.158;7.346;2023-04-24T02:10:03;8.70;99.90
45983;DHT22;31711;47.158;7.346;2023-04-24T02:12:30;8.70;99.90
45983;DHT22;31711;47.158;7.346;2023-04-24T02:14:56;8.70;99.90
45983;DHT22;31711;47.158;7.346;2023-04-24T02:17:22;8.70;99.90
45983;DHT22;31711;47.158;7.346;2023-04-24T02:19:48;8.70;99.90
45983;DHT22;31711;47.158;7.346;2023-04-24T02:22:14;8.70;99.90
45983;DHT22;31711;47.158;7.346;2023-04-24T02:24:40;8.70;99.90
45983;DHT22;31711;47.158;7.346;2023-04-24T02:27:06;8.80;99.90
45983;DHT22;31711;47.158;7.346;2023-04-24T02:29:33;8.80;99.90
45983;DHT22;31711;47.158;7.346;2023-04-24T02:31:59;8.80;99.90
45983;DHT22;31711;47.158;7.346;2023-04-24T02:34:25;8.80;99.90
45983;DHT22;31711;47.158;7.346;2023-04-24T02:36:51;8.70;99.90
45983;DHT22;31711;47.158;7.346;2023-04-24T02:39:19;8.80;99.90
45983;DHT22;31711;47.158;7.346;2023-04-24T02:41:45;8.70;99.90
45983;DHT22;31711;47.158;7.346;2023-04-24T02:44:11;8.70;99.90
45983;DHT22;31711;47.158;7.346;2023-04-24T02:46:37;8.70;99.90
45983;DHT22;31711;47.158;7.346;2023-04-24T02:49:03;8.70;99.90
45983;DHT22;31711;47.158;7.346;2023-04-24T02:51:29;8.60;99.90
45983;DHT22;31711;47.158;7.346;2023-04-24T02:53:55;8.60;99.90
45983;DHT22;31711;47.158;7.346;2023-04-24T02:56:21;8.70;99.90
45983;DHT22;31711;47.158;7.346;2023-04-24T02:58:47;8.70;99.90
45983;DHT22;31711;47.158;7.346;2023-04-24T03:01:13;8.70;99.90
45983;DHT22;31711;47.158;7.346;2023-04-24T03:03:39;8.70;99.90
45983;DHT22;31711;47.158;7.346;2023-04-24T03:06:06;8.60;99.90
45983;DHT22;31711;47.158;7.346;2023-04-24T03:08:33;8.60;99.90
45983;DHT22;31711;47.158;7.346;2023-04-24T03:11:00;8.60;99.90
45983;DHT22;31711;47.158;7.346;2023-04-24T03:13:26;8.50;99.90
45983;DHT22;31711;47.158;7.346;2023-04-24T03:15:52;8.60;99.90
45983;DHT22;31711;47.158;7.346;2023-04-24T03:18:19;8.60;99.90
45983;DHT22;31711;47.158;7.346;2023-04-24T03:20:46;8.50;99.90
45983;DHT22;31711;47.158;7.346;2023-04-24T03:23:13;8.40;99.90
45983;DHT22;31711;47.158;7.346;2023-04-24T03:25:39;8.40;99.90
45983;DHT22;31711;47.158;7.346;2023-04-24T03:28:05;8.40;99.90
45983;DHT22;31711;47.158;7.346;2023-04-24T03:30:31;8.30;99.90
45983;DHT22;31711;47.158;7.346;2023-04-24T03:32:57;8.30;99.90
45983;DHT22;31711;47.158;7.346;2023-04-24T03:35:23;8.30;99.90
45983;DHT22;31711;47.158;7.346;2023-04-24T03:37:48;8.30;99.90
45983;DHT22;31711;47.158;7.346;2023-04-24T03:40:15;8.30;99.90
45983;DHT22;31711;47.158;7.346;2023-04-24T03:42:40;8.40;99.90
45983;DHT22;31711;47.158;7.346;2023-04-24T03:45:07;8.40;99.90
45983;DHT22;31711;47.158;7.346;2023-04-24T03:47:34;8.40;99.90
45983;DHT22;31711;47.158;7.346;2023-04-24T03:50:00;8.40;99.90
45983;DHT22;31711;47.158;7.346;2023-04-24T03:52:26;8.40;99.90
45983;DHT22;31711;47.158;7.346;2023-04-24T03:54:52;8.40;99.90
45983;DHT22;31711;47.158;7.346;2023-04-24T03:57:18;8.30;99.90
45983;DHT22;31711;47.158;7.346;2023-04-24T03:59:45;8.30;99.90
45983;DHT22;31711;47.158;7.346;2023-04-24T04:02:11;8.30;99.90
45983;DHT22;31711;47.158;7.346;2023-04-24T04:04:38;8.30;99.90
45983;DHT22;31711;47.158;7.346;2023-04-24T04:07:04;8.30;99.90
45983;DHT22;31711;47.158;7.346;2023-04-24T04:09:31;8.30;99.90
45983;DHT22;31711;47.158;7.346;2023-04-24T04:11:57;8.30;99.90
45983;DHT22;31711;47.158;7.346;2023-04-24T04:14:23;8.30;99.90
45983;DHT22;31711;47.158;7.346;2023-04-24T04:16:49;8.30;99.90
45983;DHT22;31711;47.158;7.346;2023-04-24T04:19:15;8.30;99.90
45983;DHT22;31711;47.158;7.346;2023-04-24T04:21:41;8.30;99.90
45983;DHT22;31711;47.158;7.346;2023-04-24T04:24:07;8.40;99.90
45983;DHT22;31711;47.158;7.346;2023-04-24T04:26:33;8.40;99.90
45983;DHT22;31711;47.158;7.346;2023-04-24T04:28:59;8.40;99.90
45983;DHT22;31711;47.158;7.346;2023-04-24T04:31:29;8.40;99.90
45983;DHT22;31711;47.158;7.346;2023-04-24T04:33:56;8.50;99.90
45983;DHT22;31711;47.158;7.346;2023-04-24T04:36:22;8.50;99.90
45983;DHT22;31711;47.158;7.346;2023-04-24T04:38:49;8.50;99.90
45983;DHT22;31711;47.158;7.346;2023-04-24T04:41:15;8.60;99.90
45983;DHT22;31711;47.158;7.346;2023-04-24T04:43:43;8.60;99.90
45983;DHT22;31711;47.158;7.346;2023-04-24T04:46:09;8.70;99.90
45983;DHT22;31711;47.158;7.346;2023-04-24T04:48:36;8.70;99.90
45983;DHT22;31711;47.158;7.346;2023-04-24T04:51:03;8.70;99.90
45983;DHT22;31711;47.158;7.346;2023-04-24T04:53:29;8.70;99.90
45983;DHT22;31711;47.158;7.346;2023-04-24T04:55:55;8.80;99.90
45983;DHT22;31711;47.158;7.346;2023-04-24T04:58:21;8.70;99.90
45983;DHT22;31711;47.158;7.346;2023-04-24T05:00:47;8.80;99.90
45983;DHT22;31711;47.158;7.346;2023-04-24T05:03:14;8.70;99.90
45983;DHT22;31711;47.158;7.346;2023-04-24T05:05:40;8.70;99.90
45983;DHT22;31711;47.158;7.346;2023-04-24T05:08:07;8.70;99.90
45983;DHT22;31711;47.158;7.346;2023-04-24T05:10:34;8.70;99.90
45983;DHT22;31711;47.158;7.346;2023-04-24T05:13:03;8.70;99.90
45983;DHT22;31711;47.158;7.346;2023-04-24T05:15:29;8.70;99.90
45983;DHT22;31711;47.158;7.346;2023-04-24T05:17:56;8.70;99.90
45983;DHT22;31711;47.158;7.346;2023-04-24T05:20:22;8.60;99.90
45983;DHT22;31711;47.158;7.346;2023-04-24T05:22:48;8.70;99.90
45983;DHT22;31711;47.158;7.346;2023-04-24T05:25:14;8.80;99.90
45983;DHT22;31711;47.158;7.346;2023-04-24T05:27:40;8.80;99.90
45983;DHT22;31711;47.158;7.346;2023-04-24T05:30:07;8.90;99.90
45983;DHT22;31711;47.158;7.346;2023-04-24T05:32:33;9.10;99.90
45983;DHT22;31711;47.158;7.346;2023-04-24T05:34:59;9.20;99.90
45983;DHT22;31711;47.158;7.346;2023-04-24T05:37:25;9.20;99.90
45983;DHT22;31711;47.158;7.346;2023-04-24T05:39:51;9.20;99.90
45983;DHT22;31711;47.158;7.346;2023-04-24T05:42:17;9.20;99.90
45983;DHT22;31711;47.158;7.346;2023-04-24T05:44:43;9.20;99.90
45983;DHT22;31711;47.158;7.346;2023-04-24T05:47:09;9.20;99.90
45983;DHT22;31711;47.158;7.346;2023-04-24T05:49:35;9.30;99.90
45983;DHT22;31711;47.158;7.346;2023-04-24T05:52:01;9.20;99.90
45983;DHT22;31711;47.158;7.346;2023-04-24T05:54:29;9.20;99.90
45983;DHT22;31711;47.158;7.346;2023-04-24T05:56:55;9.20;99.90
45983;DHT22;31711;47.158;7.346;2023-04-24T05:59:21;9.20;99.90
45983;DHT22;31711;47.158;7.346;2023-04-24T06:01:47;9.20;99.90
45983;DHT22;31711;47.158;7.346;2023-04-24T06:04:13;9.10;99.90
45983;DHT22;31711;47.158;7.346;2023-04-24T06:06:40;9.10;99.90
45983;DHT22;31711;47.158;7.346;2023-04-24T06:09:06;9.10;99.90
45983;DHT22;31711;47.158;7.346;2023-04-24T06:11:32;9.10;99.90
45983;DHT22;31711;47.158;7.346;2023-04-24T06:13:58;8.90;99.90
45983;DHT22;31711;47.158;7.346;2023-04-24T06:16:24;8.90;99.90
45983;DHT22;31711;47.158;7.346;2023-04-24T06:18:50;9.00;99.90
45983;DHT22;31711;47.158;7.346;2023-04-24T06:21:16;9.20;99.90
45983;DHT22;31711;47.158;7.346;2023-04-24T06:23:42;9.40;99.90
45983;DHT22;31711;47.158;7.346;2023-04-24T06:26:09;9.50;99.90
45983;DHT22;31711;47.158;7.346;2023-04-24T06:28:35;9.70;99.90
45983;DHT22;31711;47.158;7.346;2023-04-24T06:31:01;9.80;99.90
45983;DHT22;31711;47.158;7.346;2023-04-24T06:33:27;9.90;99.90
45983;DHT22;31711;47.158;7.346;2023-04-24T06:35:53;10.00;99.90
45983;DHT22;31711;47.158;7.346;2023-04-24T06:38:19;10.20;99.90
45983;DHT22;31711;47.158;7.346;2023-04-24T06:40:45;10.40;99.90
45983;DHT22;31711;47.158;7.346;2023-04-24T06:43:11;10.60;99.90
45983;DHT22;31711;47.158;7.346;2023-04-24T06:45:38;10.70;99.90
45983;DHT22;31711;47.158;7.346;2023-04-24T06:48:05;10.70;99.90
45983;DHT22;31711;47.158;7.346;2023-04-24T06:50:31;10.70;99.90
45983;DHT22;31711;47.158;7.346;2023-04-24T06:52:57;10.90;99.90
45983;DHT22;31711;47.158;7.346;2023-04-24T06:55:23;11.00;99.90
45983;DHT22;31711;47.158;7.346;2023-04-24T06:57:49;11.10;99.90
45983;DHT22;31711;47.158;7.346;2023-04-24T07:00:15;11.20;99.90
45983;DHT22;31711;47.158;7.346;2023-04-24T07:02:41;11.30;99.90
45983;DHT22;31711;47.158;7.346;2023-04-24T07:05:07;11.20;99.90
45983;DHT22;31711;47.158;7.346;2023-04-24T07:07:34;11.10;99.90
45983;DHT22;31711;47.158;7.346;2023-04-24T07:10:00;11.20;99.90
45983;DHT22;31711;47.158;7.346;2023-04-24T07:12:26;11.50;99.90
45983;DHT22;31711;47.158;7.346;2023-04-24T07:14:52;11.20;99.90
45983;DHT22;31711;47.158;7.346;2023-04-24T07:17:18;11.20;99.90
45983;DHT22;31711;47.158;7.346;2023-04-24T07:19:44;11.40;99.90
45983;DHT22;31711;47.158;7.346;2023-04-24T07:22:10;11.50;99.90
45983;DHT22;31711;47.158;7.346;2023-04-24T07:24:43;11.60;99.90
45983;DHT22;31711;47.158;7.346;2023-04-24T07:27:09;11.60;99.90
45983;DHT22;31711;47.158;7.346;2023-04-24T07:29:35;11.50;99.90
45983;DHT22;31711;47.158;7.346;2023-04-24T07:32:02;11.30;99.90
45983;DHT22;31711;47.158;7.346;2023-04-24T07:34:27;11.20;99.90
45983;DHT22;31711;47.158;7.346;2023-04-24T07:36:53;11.10;99.90
45983;DHT22;31711;47.158;7.346;2023-04-24T07:39:19;10.90;99.90
45983;DHT22;31711;47.158;7.346;2023-04-24T07:41:46;10.90;99.90
45983;DHT22;31711;47.158;7.346;2023-04-24T07:44:12;10.80;99.90
45983;DHT22;31711;47.158;7.346;2023-04-24T07:46:38;10.80;99.90
45983;DHT22;31711;47.158;7.346;2023-04-24T07:49:04;10.70;99.90
45983;DHT22;31711;47.158;7.346;2023-04-24T07:51:30;10.70;99.90
45983;DHT22;31711;47.158;7.346;2023-04-24T07:53:56;10.70;99.90
45983;DHT22;31711;47.158;7.346;2023-04-24T07:56:22;10.50;99.90
45983;DHT22;31711;47.158;7.346;2023-04-24T07:58:48;10.30;99.90
45983;DHT22;31711;47.158;7.346;2023-04-24T08:01:14;10.20;99.90
45983;DHT22;31711;47.158;7.346;2023-04-24T08:03:41;10.30;99.90
45983;DHT22;31711;47.158;7.346;2023-04-24T08:06:07;10.40;99.90
45983;DHT22;31711;47.158;7.346;2023-04-24T08:08:33;10.50;99.90
45983;DHT22;31711;47.158;7.346;2023-04-24T08:10:59;10.40;99.90
45983;DHT22;31711;47.158;7.346;2023-04-24T08:13:25;10.40;99.90
45983;DHT22;31711;47.158;7.346;2023-04-24T08:15:51;10.40;99.90
45983;DHT22;31711;47.158;7.346;2023-04-24T08:18:17;10.60;99.90
45983;DHT22;31711;47.158;7.346;2023-04-24T08:20:43;10.60;99.90
45983;DHT22;31711;47.158;7.346;2023-04-24T08:23:10;10.50;99.90
45983;DHT22;31711;47.158;7.346;2023-04-24T08:25:36;10.50;99.90
45983;DHT22;31711;47.158;7.346;2023-04-24T08:28:03;10.40;99.90
45983;DHT22;31711;47.158;7.346;2023-04-24T08:30:30;10.40;99.90
45983;DHT22;31711;47.158;7.346;2023-04-24T08:32:56;10.30;99.90
45983;DHT22;31711;47.158;7.346;2023-04-24T08:35:22;10.10;99.90
45983;DHT22;31711;47.158;7.346;2023-04-24T08:37:49;10.10;99.90
45983;DHT22;31711;47.158;7.346;2023-04-24T08:40:16;10.20;99.90
45983;DHT22;31711;47.158;7.346;2023-04-24T08:42:43;10.20;99.90
45983;DHT22;31711;47.158;7.346;2023-04-24T08:45:11;10.30;99.90
45983;DHT22;31711;47.158;7.346;2023-04-24T08:47:39;10.20;99.90
45983;DHT22;31711;47.158;7.346;2023-04-24T08:50:06;10.10;99.90
45983;DHT22;31711;47.158;7.346;2023-04-24T08:52:33;10.10;99.90
45983;DHT22;31711;47.158;7.346;2023-04-24T08:55:00;10.20;99.90
45983;DHT22;31711;47.158;7.346;2023-04-24T08:57:27;10.30;99.90
45983;DHT22;31711;47.158;7.346;2023-04-24T08:59:54;10.50;99.90
45983;DHT22;31711;47.158;7.346;2023-04-24T09:02:21;10.70;99.90
45983;DHT22;31711;47.158;7.346;2023-04-24T09:04:48;11.00;99.90
45983;DHT22;31711;47.158;7.346;2023-04-24T09:07:16;11.30;99.90
45983;DHT22;31711;47.158;7.346;2023-04-24T09:09:44;11.50;99.90
45983;DHT22;31711;47.158;7.346;2023-04-24T09:12:10;11.60;99.90
45983;DHT22;31711;47.158;7.346;2023-04-24T09:14:37;11.80;99.90
45983;DHT22;31711;47.158;7.346;2023-04-24T09:17:08;11.70;99.90
45983;DHT22;31711;47.158;7.346;2023-04-24T09:19:34;11.80;99.90
45983;DHT22;31711;47.158;7.346;2023-04-24T09:22:05;11.80;99.90
45983;DHT22;31711;47.158;7.346;2023-04-24T09:24:32;11.60;99.90
45983;DHT22;31711;47.158;7.346;2023-04-24T09:26:58;11.50;99.90
45983;DHT22;31711;47.158;7.346;2023-04-24T09:29:27;11.50;99.90
45983;DHT22;31711;47.158;7.346;2023-04-24T09:31:54;11.10;99.90
45983;DHT22;31711;47.158;7.346;2023-04-24T09:34:26;11.10;99.90
45983;DHT22;31711;47.158;7.346;2023-04-24T09:36:53;11.00;99.90
45983;DHT22;31711;47.158;7.346;2023-04-24T09:39:20;11.10;99.90
45983;DHT22;31711;47.158;7.346;2023-04-24T09:44:17;11.30;99.90
45983;DHT22;31711;47.158;7.346;2023-04-24T09:46:49;11.60;99.90
45983;DHT22;31711;47.158;7.346;2023-04-24T09:49:20;11.90;99.90
45983;DHT22;31711;47.158;7.346;2023-04-24T09:51:46;12.30;99.90
45983;DHT22;31711;47.158;7.346;2023-04-24T09:54:19;12.20;99.90
45983;DHT22;31711;47.158;7.346;2023-04-24T09:56:48;12.50;99.90
45983;DHT22;31711;47.158;7.346;2023-04-24T09:59:17;12.50;99.90
45983;DHT22;31711;47.158;7.346;2023-04-24T10:01:44;12.60;99.90
45983;DHT22;31711;47.158;7.346;2023-04-24T10:04:17;12.50;99.90
45983;DHT22;31711;47.158;7.346;2023-04-24T10:06:44;12.70;99.90
45983;DHT22;31711;47.158;7.346;2023-04-24T10:09:11;12.60;99.90
45983;DHT22;31711;47.158;7.346;2023-04-24T10:11:43;12.80;99.90
45983;DHT22;31711;47.158;7.346;2023-04-24T10:14:19;13.00;99.90
45983;DHT22;31711;47.158;7.346;2023-04-24T10:16:46;12.50;99.90
45983;DHT22;31711;47.158;7.346;2023-04-24T10:19:13;12.10;99.90
45983;DHT22;31711;47.158;7.346;2023-04-24T10:21:42;11.90;99.90
45983;DHT22;31711;47.158;7.346;2023-04-24T10:24:16;11.90;99.90
45983;DHT22;31711;47.158;7.346;2023-04-24T10:26:43;11.90;99.90
45983;DHT22;31711;47.158;7.346;2023-04-24T10:29:11;11.90;99.90
45983;DHT22;31711;47.158;7.346;2023-04-24T10:31:38;11.80;99.90
45983;DHT22;31711;47.158;7.346;2023-04-24T10:34:09;11.70;99.90
45983;DHT22;31711;47.158;7.346;2023-04-24T10:36:38;12.00;99.90
45983;DHT22;31711;47.158;7.346;2023-04-24T10:39:09;12.20;99.90
45983;DHT22;31711;47.158;7.346;2023-04-24T10:41:37;12.40;99.90
45983;DHT22;31711;47.158;7.346;2023-04-24T10:44:23;12.80;99.90
45983;DHT22;31711;47.158;7.346;2023-04-24T10:46:54;13.20;99.90
45983;DHT22;31711;47.158;7.346;2023-04-24T10:49:31;13.50;99.90
45983;DHT22;31711;47.158;7.346;2023-04-24T10:52:03;13.80;99.90
45983;DHT22;31711;47.158;7.346;2023-04-24T10:54:41;13.40;99.90
45983;DHT22;31711;47.158;7.346;2023-04-24T11:00:14;13.30;99.90
45983;DHT22;31711;47.158;7.346;2023-04-24T11:02:41;13.20;99.90
45983;DHT22;31711;47.158;7.346;2023-04-24T11:05:15;13.40;99.90
45983;DHT22;31711;47.158;7.346;2023-04-24T11:10:57;13.50;99.90
45983;DHT22;31711;47.158;7.346;2023-04-24T11:19:03;13.20;99.90
45983;DHT22;31711;47.158;7.346;2023-04-24T11:24:40;12.80;99.90
45983;DHT22;31711;47.158;7.346;2023-04-24T11:27:09;12.80;99.90
45983;DHT22;31711;47.158;7.346;2023-04-24T11:35:12;13.10;99.90
45983;DHT22;31711;47.158;7.346;2023-04-24T11:37:40;13.00;99.90
45983;DHT22;31711;47.158;7.346;2023-04-24T11:40:11;12.70;99.90
45983;DHT22;31711;47.158;7.346;2023-04-24T11:42:40;12.50;99.90
45983;DHT22;31711;47.158;7.346;2023-04-24T11:45:08;12.60;99.90
45983;DHT22;31711;47.158;7.346;2023-04-24T11:47:35;12.60;99.90
45983;DHT22;31711;47.158;7.346;2023-04-24T11:50:02;12.70;99.90
45983;DHT22;31711;47.158;7.346;2023-04-24T11:52:29;12.90;99.90
45983;DHT22;31711;47.158;7.346;2023-04-24T11:54:56;13.20;99.90
45983;DHT22;31711;47.158;7.346;2023-04-24T11:57:24;13.50;99.90
45983;DHT22;31711;47.158;7.346;2023-04-24T11:59:53;13.50;99.90
45983;DHT22;31711;47.158;7.346;2023-04-24T12:02:27;13.30;99.90
45983;DHT22;31711;47.158;7.346;2023-04-24T12:04:53;13.30;99.90
45983;DHT22;31711;47.158;7.346;2023-04-24T12:07:20;13.60;99.90
45983;DHT22;31711;47.158;7.346;2023-04-24T12:09:57;13.60;99.90
45983;DHT22;31711;47.158;7.346;2023-04-24T12:12:27;13.60;99.90
45983;DHT22;31711;47.158;7.346;2023-04-24T12:14:57;13.70;99.90
45983;DHT22;31711;47.158;7.346;2023-04-24T12:17:32;13.60;99.90
45983;DHT22;31711;47.158;7.346;2023-04-24T12:20:03;13.80;99.90
45983;DHT22;31711;47.158;7.346;2023-04-24T12:25:18;14.00;99.90
45983;DHT22;31711;47.158;7.346;2023-04-24T12:27:46;14.00;99.90
45983;DHT22;31711;47.158;7.346;2023-04-24T12:30:14;14.00;99.90
45983;DHT22;31711;47.158;7.346;2023-04-24T12:32:48;14.00;99.90
45983;DHT22;31711;47.158;7.346;2023-04-24T12:35:22;14.10;99.90
45983;DHT22;31711;47.158;7.346;2023-04-24T12:37:49;13.80;99.90
45983;DHT22;31711;47.158;7.346;2023-04-24T12:40:17;14.00;99.90
45983;DHT22;31711;47.158;7.346;2023-04-24T12:42:44;14.00;99.90
45983;DHT22;31711;47.158;7.346;2023-04-24T12:45:13;14.40;99.90
45983;DHT22;31711;47.158;7.346;2023-04-24T12:47:41;14.70;99.90
45983;DHT22;31711;47.158;7.346;2023-04-24T12:50:08;14.50;99.90
45983;DHT22;31711;47.158;7.346;2023-04-24T12:52:35;14.60;99.90
45983;DHT22;31711;47.158;7.346;2023-04-24T12:55:01;14.90;99.90
45983;DHT22;31711;47.158;7.346;2023-04-24T12:57:29;14.70;99.90
45983;DHT22;31711;47.158;7.346;2023-04-24T12:59:57;14.40;99.90
45983;DHT22;31711;47.158;7.346;2023-04-24T13:02:24;14.30;99.90
45983;DHT22;31711;47.158;7.346;2023-04-24T13:04:50;14.00;99.90
45983;DHT22;31711;47.158;7.346;2023-04-24T13:07:17;14.00;99.90
45983;DHT22;31711;47.158;7.346;2023-04-24T13:09:44;13.80;99.90
45983;DHT22;31711;47.158;7.346;2023-04-24T13:12:11;13.60;99.90
45983;DHT22;31711;47.158;7.346;2023-04-24T13:14:37;14.00;99.90
45983;DHT22;31711;47.158;7.346;2023-04-24T13:17:04;14.00;99.90
45983;DHT22;31711;47.158;7.346;2023-04-24T13:19:35;14.10;99.90
45983;DHT22;31711;47.158;7.346;2023-04-24T13:22:01;14.30;99.90
45983;DHT22;31711;47.158;7.346;2023-04-24T13:24:27;14.40;99.90
45983;DHT22;31711;47.158;7.346;2023-04-24T13:26:53;14.30;99.90
45983;DHT22;31711;47.158;7.346;2023-04-24T13:29:20;14.30;99.90
45983;DHT22;31711;47.158;7.346;2023-04-24T13:31:46;14.40;99.90
45983;DHT22;31711;47.158;7.346;2023-04-24T13:34:13;14.50;99.90
45983;DHT22;31711;47.158;7.346;2023-04-24T13:36:39;14.80;99.90
45983;DHT22;31711;47.158;7.346;2023-04-24T13:39:05;15.00;99.90
45983;DHT22;31711;47.158;7.346;2023-04-24T13:41:33;14.80;99.90
45983;DHT22;31711;47.158;7.346;2023-04-24T13:43:59;14.90;99.30
45983;DHT22;31711;47.158;7.346;2023-04-24T13:46:25;14.80;99.80
45983;DHT22;31711;47.158;7.346;2023-04-24T13:48:51;14.70;99.90
45983;DHT22;31711;47.158;7.346;2023-04-24T13:51:18;14.60;99.90
45983;DHT22;31711;47.158;7.346;2023-04-24T13:53:44;14.50;99.90
45983;DHT22;31711;47.158;7.346;2023-04-24T13:56:10;14.20;99.90
45983;DHT22;31711;47.158;7.346;2023-04-24T13:58:38;13.90;99.90
45983;DHT22;31711;47.158;7.346;2023-04-24T14:01:04;14.10;99.90
45983;DHT22;31711;47.158;7.346;2023-04-24T14:03:30;14.10;99.90
45983;DHT22;31711;47.158;7.346;2023-04-24T14:05:56;14.30;99.90
45983;DHT22;31711;47.158;7.346;2023-04-24T14:08:23;14.20;99.90
45983;DHT22;31711;47.158;7.346;2023-04-24T14:10:50;13.80;99.90
45983;DHT22;31711;47.158;7.346;2023-04-24T14:13:16;13.50;99.90
45983;DHT22;31711;47.158;7.346;2023-04-24T14:15:43;13.50;99.90
45983;DHT22;31711;47.158;7.346;2023-04-24T14:18:09;13.30;99.90
45983;DHT22;31711;47.158;7.346;2023-04-24T14:20:35;13.30;99.90
45983;DHT22;31711;47.158;7.346;2023-04-24T14:23:01;13.60;99.90
45983;DHT22;31711;47.158;7.346;2023-04-24T14:25:27;14.30;99.90
45983;DHT22;31711;47.158;7.346;2023-04-24T14:27:53;14.80;99.90
45983;DHT22;31711;47.158;7.346;2023-04-24T14:30:19;14.80;99.90
45983;DHT22;31711;47.158;7.346;2023-04-24T14:32:45;14.60;99.90
45983;DHT22;31711;47.158;7.346;2023-04-24T14:35:11;14.00;99.90
45983;DHT22;31711;47.158;7.346;2023-04-24T14:37:37;13.70;99.90
45983;DHT22;31711;47.158;7.346;2023-04-24T14:40:04;13.80;99.90
45983;DHT22;31711;47.158;7.346;2023-04-24T14:42:32;13.80;99.90
45983;DHT22;31711;47.158;7.346;2023-04-24T14:44:58;13.80;99.90
45983;DHT22;31711;47.158;7.346;2023-04-24T14:47:24;13.90;99.90
45983;DHT22;31711;47.158;7.346;2023-04-24T14:49:51;13.70;99.90
45983;DHT22;31711;47.158;7.346;2023-04-24T14:52:17;14.00;99.90
45983;DHT22;31711;47.158;7.346;2023-04-24T14:54:44;14.00;99.90
45983;DHT22;31711;47.158;7.346;2023-04-24T14:57:13;14.50;99.90
45983;DHT22;31711;47.158;7.346;2023-04-24T14:59:39;14.60;99.20
45983;DHT22;31711;47.158;7.346;2023-04-24T15:02:06;14.20;99.20
45983;DHT22;31711;47.158;7.346;2023-04-24T15:04:32;14.30;99.70
45983;DHT22;31711;47.158;7.346;2023-04-24T15:06:58;14.10;99.30
45983;DHT22;31711;47.158;7.346;2023-04-24T15:09:24;13.70;99.50
45983;DHT22;31711;47.158;7.346;2023-04-24T15:11:52;13.60;98.40
45983;DHT22;31711;47.158;7.346;2023-04-24T15:14:18;13.50;99.00
45983;DHT22;31711;47.158;7.346;2023-04-24T15:16:44;13.60;99.70
45983;DHT22;31711;47.158;7.346;2023-04-24T15:19:10;13.70;99.90
45983;DHT22;31711;47.158;7.346;2023-04-24T15:21:37;13.80;99.90
45983;DHT22;31711;47.158;7.346;2023-04-24T15:24:04;14.00;99.90
45983;DHT22;31711;47.158;7.346;2023-04-24T15:26:30;14.20;99.90
45983;DHT22;31711;47.158;7.346;2023-04-24T15:28:56;14.50;99.10
45983;DHT22;31711;47.158;7.346;2023-04-24T15:31:22;14.30;98.50
45983;DHT22;31711;47.158;7.346;2023-04-24T15:33:49;14.10;99.10
45983;DHT22;31711;47.158;7.346;2023-04-24T15:36:16;13.90;98.60
45983;DHT22;31711;47.158;7.346;2023-04-24T15:38:45;13.80;99.10
45983;DHT22;31711;47.158;7.346;2023-04-24T15:41:11;13.90;99.90
45983;DHT22;31711;47.158;7.346;2023-04-24T15:43:38;13.80;99.90
45983;DHT22;31711;47.158;7.346;2023-04-24T15:46:04;14.10;99.90
45983;DHT22;31711;47.158;7.346;2023-04-24T15:48:31;14.40;98.00
45983;DHT22;31711;47.158;7.346;2023-04-24T15:50:57;14.60;97.20
45983;DHT22;31711;47.158;7.346;2023-04-24T15:53:24;14.50;97.90
45983;DHT22;31711;47.158;7.346;2023-04-24T15:55:51;14.60;98.30
45983;DHT22;31711;47.158;7.346;2023-04-24T15:58:19;14.60;98.40
45983;DHT22;31711;47.158;7.346;2023-04-24T16:00:46;14.20;98.10